createdAt,value
2023-09-13T00:04:49.832Z,21.88
2023-09-13T00:09:52.218Z,21.85
2023-09-13T00:14:54.188Z,21.82
2023-09-13T00:19:59.706Z,21.79
2023-09-13T00:25:01.669Z,21.78
2023-09-13T00:30:04.281Z,21.75
2023-09-13T00:35:06.683Z,21.73
2023-09-13T00:40:09.506Z,21.70
2023-09-13T00:45:11.535Z,21.69
2023-09-13T00:50:16.163Z,21.69
2023-09-13T00:55:21.101Z,21.70
2023-09-13T01:00:25.562Z,21.73
2023-09-13T01:05:27.742Z,21.78
2023-09-13T01:10:29.962Z,21.85
2023-09-13T01:16:02.059Z,22.14
2023-09-13T01:21:33.773Z,22.29
2023-09-13T01:26:50.038Z,22.36
2023-09-13T01:31:52.460Z,22.40
2023-09-13T01:36:55.510Z,22.43
2023-09-13T01:42:06.775Z,22.46
2023-09-13T01:47:09.719Z,22.50
2023-09-13T01:52:11.738Z,22.52
2023-09-13T01:57:13.691Z,22.54
2023-09-13T02:02:15.600Z,22.54
2023-09-13T02:07:17.927Z,22.54
2023-09-13T02:12:19.941Z,22.47
2023-09-13T02:17:21.982Z,22.33
2023-09-13T02:22:23.815Z,22.22
2023-09-13T02:27:25.764Z,22.15
2023-09-13T02:32:27.648Z,22.08
2023-09-13T02:37:29.660Z,22.06
2023-09-13T02:42:31.471Z,22.01
2023-09-13T02:47:33.429Z,21.96
2023-09-13T02:52:35.350Z,21.90
2023-09-13T02:57:37.216Z,21.84
2023-09-13T03:02:39.253Z,21.77
2023-09-13T03:07:41.681Z,21.74
2023-09-13T03:12:44.269Z,21.66
2023-09-13T03:17:47.191Z,21.65
2023-09-13T03:22:49.344Z,21.62
2023-09-13T03:27:53.207Z,21.53
2023-09-13T03:32:55.093Z,21.40
2023-09-13T03:37:57.071Z,21.33
2023-09-13T03:43:00.522Z,21.30
2023-09-13T03:48:02.792Z,21.30
2023-09-13T03:53:05.104Z,21.30
2023-09-13T03:58:07.433Z,21.34
2023-09-13T04:03:09.836Z,21.32
2023-09-13T04:08:12.328Z,21.27
2023-09-13T04:13:14.830Z,21.22
2023-09-13T04:18:17.905Z,21.17
2023-09-13T04:23:20.164Z,21.13
2023-09-13T04:28:23.390Z,21.09
2023-09-13T04:33:54.559Z,21.09
2023-09-13T04:39:01.207Z,21.06
2023-09-13T04:44:04.511Z,21.05
2023-09-13T04:49:07.436Z,21.03
2023-09-13T04:54:09.642Z,21.00
2023-09-13T04:59:11.833Z,20.98
2023-09-13T05:04:14.025Z,20.97
2023-09-13T05:09:16.245Z,21.00
2023-09-13T05:14:18.355Z,21.00
2023-09-13T05:19:20.722Z,21.02
2023-09-13T05:24:22.652Z,21.04
2023-09-13T05:29:24.665Z,21.10
2023-09-13T05:34:26.659Z,21.13
2023-09-13T05:39:28.806Z,21.21
2023-09-13T05:44:32.669Z,21.29
2023-09-13T05:49:34.785Z,21.37
2023-09-13T05:54:36.891Z,21.42
2023-09-13T05:59:41.139Z,21.48
2023-09-13T06:04:43.343Z,21.50
2023-09-13T06:09:45.384Z,21.52
2023-09-13T06:14:48.128Z,21.58
2023-09-13T06:19:51.268Z,21.70
2023-09-13T06:24:53.186Z,21.77
2023-09-13T06:29:55.079Z,21.84
2023-09-13T06:35:00.380Z,21.93
2023-09-13T06:40:04.917Z,22.10
2023-09-13T06:45:22.183Z,22.21
2023-09-13T06:55:35.602Z,22.42
2023-09-13T07:00:54.650Z,22.50
2023-09-13T07:06:05.634Z,22.57
2023-09-13T07:11:07.819Z,22.68
2023-09-13T07:16:10.472Z,22.79
2023-09-13T07:21:12.571Z,22.87
2023-09-13T07:26:15.334Z,22.89
2023-09-13T07:31:17.422Z,22.86
2023-09-13T07:36:19.630Z,22.81
2023-09-13T07:41:21.700Z,22.75
2023-09-13T07:46:24.357Z,22.72
2023-09-13T07:51:27.022Z,22.71
2023-09-13T07:56:29.033Z,22.69
2023-09-13T08:01:31.428Z,22.67
2023-09-13T08:06:33.903Z,22.63
2023-09-13T08:11:36.282Z,22.61
2023-09-13T08:16:38.627Z,22.60
2023-09-13T08:21:43.020Z,22.59
2023-09-13T08:26:44.963Z,22.54
2023-09-13T08:31:47.024Z,22.51
2023-09-13T08:36:50.487Z,22.48
2023-09-13T08:41:55.005Z,22.53
2023-09-13T08:47:00.043Z,22.58
2023-09-13T08:52:03.605Z,22.66
2023-09-13T08:57:06.608Z,22.71
2023-09-13T09:02:15.374Z,22.74
2023-09-13T09:07:20.682Z,22.80
2023-09-13T09:12:25.867Z,22.94
2023-09-13T09:17:29.144Z,23.12
2023-09-13T09:22:31.959Z,23.37
2023-09-13T09:27:34.017Z,23.55
2023-09-13T09:32:38.816Z,23.70
2023-09-13T09:37:41.040Z,23.79
2023-09-13T09:42:43.281Z,23.72
2023-09-13T09:47:45.482Z,23.60
2023-09-13T09:52:51.881Z,23.57
2023-09-13T09:57:55.006Z,23.71
2023-09-13T10:02:57.503Z,23.86
2023-09-13T10:07:59.912Z,23.92
2023-09-13T10:13:02.139Z,23.85
2023-09-13T10:18:08.221Z,23.83
2023-09-13T10:23:14.504Z,23.88
2023-09-13T10:28:20.085Z,23.91
2023-09-13T10:33:27.077Z,23.98
2023-09-13T10:39:06.732Z,23.93
2023-09-13T10:44:11.563Z,23.84
2023-09-13T10:49:13.753Z,23.81
2023-09-13T10:54:17.717Z,23.76
2023-09-13T10:59:23.442Z,23.64
2023-09-13T11:04:26.765Z,23.50
2023-09-13T11:09:33.069Z,23.45
2023-09-13T11:14:35.117Z,23.58
2023-09-13T11:19:37.194Z,23.71
2023-09-13T11:25:01.898Z,23.75
2023-09-13T11:30:07.394Z,23.86
2023-09-13T11:35:12.118Z,23.89
2023-09-13T11:40:16.106Z,23.80
2023-09-13T11:45:30.406Z,23.72
2023-09-13T11:50:47.632Z,23.59
2023-09-13T12:01:05.453Z,23.42
2023-09-13T12:06:30.730Z,23.44
2023-09-13T12:11:36.604Z,23.47
2023-09-13T12:16:40.272Z,23.43
2023-09-13T12:21:47.526Z,23.39
2023-09-13T12:26:53.251Z,23.36
2023-09-13T12:31:59.217Z,23.27
2023-09-13T12:37:02.403Z,23.18
2023-09-13T12:42:09.816Z,23.18
2023-09-13T12:47:12.052Z,23.29
2023-09-13T12:52:16.281Z,23.37
2023-09-13T12:57:29.520Z,23.39
2023-09-13T13:02:35.556Z,23.41
2023-09-13T13:07:52.978Z,23.45
2023-09-13T13:13:02.998Z,23.46
2023-09-13T13:18:10.728Z,23.55
2023-09-13T13:23:12.741Z,23.65
2023-09-13T13:28:15.702Z,23.68
2023-09-13T13:33:17.678Z,23.69
2023-09-13T13:38:20.161Z,23.66
2023-09-13T13:43:22.060Z,23.67
2023-09-13T13:48:24.053Z,23.74
2023-09-13T13:53:28.139Z,23.81
2023-09-13T13:58:30.507Z,23.78
2023-09-13T14:03:33.015Z,23.71
2023-09-13T14:08:35.022Z,23.61
2023-09-13T14:13:36.940Z,23.56
2023-09-13T14:18:38.928Z,23.58
2023-09-13T14:23:41.113Z,23.60
2023-09-13T14:28:43.439Z,23.55
2023-09-13T14:33:48.193Z,23.50
2023-09-13T14:38:50.179Z,23.48
2023-09-13T14:43:52.120Z,23.46
2023-09-13T14:48:54.512Z,23.44
2023-09-13T14:53:56.922Z,23.41
2023-09-13T14:58:58.841Z,23.39
2023-09-13T15:04:01.229Z,23.35
2023-09-13T15:09:04.985Z,23.32
2023-09-13T15:14:07.108Z,23.24
2023-09-13T15:19:09.691Z,23.17
2023-09-13T15:24:12.522Z,23.13
2023-09-13T15:29:14.641Z,23.04
2023-09-13T15:34:16.578Z,23.01
2023-09-13T15:39:18.846Z,22.96
2023-09-13T15:44:20.949Z,22.93
2023-09-13T15:49:27.234Z,22.90
2023-09-13T15:54:29.243Z,22.87
2023-09-13T15:59:33.724Z,22.86
2023-09-13T16:04:35.741Z,22.84
2023-09-13T16:09:38.044Z,22.78
2023-09-13T16:14:41.140Z,22.76
2023-09-13T16:19:44.311Z,22.74
2023-09-13T16:24:47.053Z,22.71
2023-09-13T16:29:48.988Z,22.71
2023-09-13T16:34:50.892Z,22.67
2023-09-13T16:39:54.184Z,22.63
2023-09-13T16:44:56.339Z,22.59
2023-09-13T16:49:58.821Z,22.57
2023-09-13T16:55:01.000Z,22.53
2023-09-13T17:00:05.193Z,22.46
2023-09-13T17:05:08.161Z,22.41
2023-09-13T17:10:10.303Z,22.35
2023-09-13T17:15:12.224Z,22.30
2023-09-13T17:20:14.209Z,22.23
2023-09-13T17:25:16.269Z,22.14
2023-09-13T17:30:18.653Z,22.05
2023-09-13T17:35:20.594Z,21.95
2023-09-13T17:40:22.612Z,21.88
2023-09-13T17:45:24.749Z,21.79
2023-09-13T17:50:26.836Z,21.69
2023-09-13T17:55:28.797Z,21.62
2023-09-13T18:00:31.172Z,21.56
2023-09-13T18:05:33.357Z,21.49
2023-09-13T18:10:35.311Z,21.44
2023-09-13T18:15:37.595Z,21.38
2023-09-13T18:20:40.609Z,21.32
2023-09-13T18:25:42.592Z,21.27
2023-09-13T18:30:44.531Z,21.22
2023-09-13T18:35:46.470Z,21.17
2023-09-13T18:40:48.584Z,21.12
2023-09-13T18:46:04.190Z,21.08
2023-09-13T18:51:06.357Z,21.03
2023-09-13T18:56:08.398Z,20.98
2023-09-13T19:01:10.442Z,20.97
2023-09-13T19:06:13.378Z,20.96
2023-09-13T19:11:15.796Z,21.00
2023-09-13T19:16:17.860Z,21.06
2023-09-13T19:21:19.982Z,21.11
2023-09-13T19:26:23.310Z,21.16
2023-09-13T19:31:26.766Z,21.22
2023-09-13T19:36:28.741Z,21.24
2023-09-13T19:41:30.745Z,21.23
2023-09-13T19:46:32.844Z,21.21
2023-09-13T19:51:34.823Z,21.14
2023-09-13T19:56:37.428Z,21.11
2023-09-13T20:01:39.373Z,21.10
2023-09-13T20:06:42.244Z,21.08
2023-09-13T20:11:44.902Z,21.06
2023-09-13T20:16:46.823Z,21.00
2023-09-13T20:21:48.769Z,20.97
2023-09-13T20:26:50.843Z,20.98
2023-09-13T20:31:52.778Z,20.96
2023-09-13T20:36:54.829Z,20.94
2023-09-13T20:41:56.687Z,20.89
2023-09-13T20:46:59.545Z,20.87
2023-09-13T20:52:01.756Z,20.85
2023-09-13T20:57:08.014Z,20.82
2023-09-13T21:02:10.140Z,20.82
2023-09-13T21:07:12.253Z,20.81
2023-09-13T21:12:14.185Z,20.83
2023-09-13T21:17:16.386Z,20.82
2023-09-13T21:22:18.578Z,20.82
2023-09-13T21:27:21.833Z,20.82
2023-09-13T21:32:23.753Z,20.82
2023-09-13T21:37:25.751Z,20.82
2023-09-13T21:42:27.678Z,20.82
2023-09-13T21:47:29.687Z,20.83
2023-09-13T21:52:31.535Z,20.82
2023-09-13T21:57:38.937Z,20.76
2023-09-13T22:02:41.391Z,20.71
2023-09-13T22:07:45.599Z,20.66
2023-09-13T22:12:53.061Z,20.62
2023-09-13T22:17:54.978Z,20.58
2023-09-13T22:22:56.949Z,20.51
2023-09-13T22:27:58.948Z,20.46
2023-09-13T22:33:01.065Z,20.42
2023-09-13T22:38:03.577Z,20.38
2023-09-13T22:43:06.933Z,20.30
2023-09-13T22:48:11.198Z,20.23
2023-09-13T22:53:13.623Z,20.19
2023-09-13T22:58:15.655Z,20.16
2023-09-13T23:03:26.820Z,20.16
2023-09-13T23:08:40.394Z,20.11
2023-09-13T23:13:43.122Z,20.10
2023-09-13T23:18:45.320Z,20.08
2023-09-13T23:23:48.369Z,20.10
2023-09-13T23:28:53.498Z,20.09
2023-09-13T23:33:55.558Z,20.06
2023-09-13T23:38:58.169Z,19.91
2023-09-13T23:44:00.217Z,19.76
2023-09-13T23:49:02.089Z,19.62
2023-09-13T23:54:04.238Z,19.53
2023-09-13T23:59:06.170Z,19.43
